createdAt,value
2023-05-15T00:00:14.390Z,39.33
2023-05-15T00:01:14.438Z,39.34
2023-05-15T00:02:14.541Z,39.30
2023-05-15T00:03:14.700Z,39.32
2023-05-15T00:04:14.714Z,39.31
2023-05-15T00:05:14.868Z,39.30
2023-05-15T00:06:14.825Z,39.33
2023-05-15T00:07:14.881Z,39.31
2023-05-15T00:08:14.918Z,39.31
2023-05-15T00:09:14.983Z,39.32
2023-05-15T00:10:15.045Z,39.31
2023-05-15T00:11:15.101Z,39.30
2023-05-15T00:12:15.137Z,39.31
2023-05-15T00:13:15.172Z,39.31
2023-05-15T00:14:15.193Z,39.33
2023-05-15T00:15:15.258Z,39.32
2023-05-15T00:16:15.383Z,39.33
2023-05-15T00:17:15.430Z,39.34
2023-05-15T00:18:15.502Z,39.33
2023-05-15T00:19:15.604Z,39.35
2023-05-15T00:20:15.652Z,39.32
2023-05-15T00:21:15.753Z,39.35
2023-05-15T00:22:15.830Z,39.33
2023-05-15T00:23:15.896Z,39.32
2023-05-15T00:24:15.948Z,39.32
2023-05-15T00:25:16.023Z,39.35
2023-05-15T00:26:16.124Z,39.34
2023-05-15T00:27:16.196Z,39.32
2023-05-15T00:28:16.334Z,39.31
2023-05-15T00:29:16.382Z,39.31
2023-05-15T00:30:16.486Z,39.31
2023-05-15T00:31:16.954Z,39.33
2023-05-15T00:32:16.625Z,39.32
2023-05-15T00:33:16.721Z,39.33
2023-05-15T00:34:16.746Z,39.33
2023-05-15T00:35:16.833Z,39.35
2023-05-15T00:36:16.920Z,39.35
2023-05-15T00:37:16.988Z,39.33
2023-05-15T00:38:17.090Z,39.32
2023-05-15T00:39:17.162Z,39.32
2023-05-15T00:40:17.252Z,39.33
2023-05-15T00:41:17.348Z,39.33
2023-05-15T00:42:17.440Z,39.33
2023-05-15T00:43:17.514Z,39.33
2023-05-15T00:44:17.614Z,39.31
2023-05-15T00:45:17.692Z,39.36
2023-05-15T00:46:17.807Z,39.35
2023-05-15T00:47:17.995Z,39.34
2023-05-15T00:48:17.955Z,39.33
2023-05-15T00:49:18.035Z,39.35
2023-05-15T00:50:18.131Z,39.33
2023-05-15T00:51:18.195Z,39.32
2023-05-15T00:52:18.259Z,39.33
2023-05-15T00:53:18.349Z,39.34
2023-05-15T00:54:18.510Z,39.33
2023-05-15T00:55:18.549Z,39.35
2023-05-15T00:56:18.623Z,39.34
2023-05-15T00:57:18.716Z,39.34
2023-05-15T00:58:18.798Z,39.36
2023-05-15T00:59:18.888Z,39.34
2023-05-15T01:00:18.989Z,39.35
2023-05-15T01:01:19.137Z,39.33
2023-05-15T01:02:19.218Z,39.34
2023-05-15T01:03:19.287Z,39.34
2023-05-15T01:04:19.326Z,39.35
2023-05-15T01:05:19.415Z,39.33
2023-05-15T01:06:19.502Z,39.35
2023-05-15T01:07:19.574Z,39.35
2023-05-15T01:08:19.680Z,39.36
2023-05-15T01:09:19.768Z,39.38
2023-05-15T01:10:19.846Z,39.33
2023-05-15T01:11:19.936Z,39.34
2023-05-15T01:12:20.033Z,39.33
2023-05-15T01:13:20.109Z,39.34
2023-05-15T01:14:20.216Z,39.35
2023-05-15T01:15:20.287Z,39.37
2023-05-15T01:16:20.362Z,39.33
2023-05-15T01:17:20.442Z,39.33
2023-05-15T01:18:20.618Z,39.34
2023-05-15T01:19:20.665Z,39.34
2023-05-15T01:20:20.657Z,39.34
2023-05-15T01:21:20.701Z,39.35
2023-05-15T01:22:20.757Z,39.36
2023-05-15T01:23:20.830Z,39.34
2023-05-15T01:24:20.906Z,39.33
2023-05-15T01:25:20.957Z,39.35
2023-05-15T01:26:21.005Z,39.37
2023-05-15T01:27:21.086Z,39.37
2023-05-15T01:28:21.193Z,39.37
2023-05-15T01:29:21.253Z,39.32
2023-05-15T01:30:21.337Z,39.33
2023-05-15T01:31:21.433Z,39.33
2023-05-15T01:32:21.577Z,39.35
2023-05-15T01:33:21.556Z,39.34
2023-05-15T01:34:21.609Z,39.36
2023-05-15T01:35:21.665Z,39.34
2023-05-15T01:36:21.692Z,39.35
2023-05-15T01:37:21.782Z,39.34
2023-05-15T01:38:21.855Z,39.35
2023-05-15T01:39:21.933Z,39.32
2023-05-15T01:40:22.019Z,39.33
2023-05-15T01:41:22.103Z,39.34
2023-05-15T01:42:22.184Z,39.34
2023-05-15T01:43:22.276Z,39.34
2023-05-15T01:44:22.406Z,39.35
2023-05-15T01:45:22.641Z,39.35
2023-05-15T01:46:22.595Z,39.38
2023-05-15T01:47:22.691Z,39.35
2023-05-15T01:48:22.705Z,39.36
2023-05-15T01:49:22.781Z,39.36
2023-05-15T01:50:22.853Z,39.35
2023-05-15T01:51:22.946Z,39.34
2023-05-15T01:52:23.027Z,39.35
2023-05-15T01:53:23.123Z,39.36
2023-05-15T01:54:23.177Z,39.33
2023-05-15T01:55:23.538Z,39.34
2023-05-15T01:56:23.306Z,39.34
2023-05-15T01:57:23.393Z,39.32
2023-05-15T01:58:23.446Z,39.34
2023-05-15T01:59:23.465Z,39.33
2023-05-15T02:00:23.545Z,39.33
2023-05-15T02:01:23.626Z,39.34
2023-05-15T02:03:42.510Z,39.37
2023-05-15T02:04:42.434Z,39.34
2023-05-15T02:05:42.452Z,39.37
2023-05-15T02:06:42.428Z,39.33
2023-05-15T02:07:42.414Z,39.32
2023-05-15T02:08:42.417Z,39.32
2023-05-15T02:09:42.416Z,39.36
2023-05-15T02:10:42.431Z,39.36
2023-05-15T02:11:42.459Z,39.36
2023-05-15T02:12:42.481Z,39.34
2023-05-15T02:13:42.473Z,39.32
2023-05-15T02:14:42.467Z,39.35
2023-05-15T02:15:42.475Z,39.36
2023-05-15T02:16:42.515Z,39.35
2023-05-15T02:17:42.496Z,39.35
2023-05-15T02:18:42.514Z,39.34
2023-05-15T02:19:42.490Z,39.35
2023-05-15T02:20:42.506Z,39.36
2023-05-15T02:21:42.524Z,39.34
2023-05-15T02:22:42.550Z,39.34
2023-05-15T02:23:42.559Z,39.38
2023-05-15T02:24:42.553Z,39.37
2023-05-15T02:25:42.576Z,39.36
2023-05-15T02:26:42.609Z,39.36
2023-05-15T02:27:42.625Z,39.37
2023-05-15T02:28:42.656Z,39.34
2023-05-15T02:29:42.721Z,39.35
2023-05-15T02:30:42.651Z,39.36
2023-05-15T02:31:42.693Z,39.36
2023-05-15T02:32:42.674Z,39.38
2023-05-15T02:33:42.665Z,39.35
2023-05-15T02:34:42.646Z,39.36
2023-05-15T02:35:42.664Z,39.37
2023-05-15T02:36:42.661Z,39.35
2023-05-15T02:37:42.717Z,39.37
2023-05-15T02:38:42.689Z,39.37
2023-05-15T02:39:42.714Z,39.38
2023-05-15T02:40:42.735Z,39.35
2023-05-15T02:41:42.744Z,39.37
2023-05-15T02:42:42.757Z,39.36
2023-05-15T02:43:42.786Z,39.38
2023-05-15T02:44:42.782Z,39.36
2023-05-15T02:45:42.851Z,39.38
2023-05-15T02:46:42.842Z,39.34
2023-05-15T02:47:42.946Z,39.37
2023-05-15T02:48:42.838Z,39.37
2023-05-15T02:49:42.840Z,39.37
2023-05-15T02:50:42.841Z,39.37
2023-05-15T02:51:42.845Z,39.36
2023-05-15T02:52:42.846Z,39.37
2023-05-15T02:53:42.939Z,39.38
2023-05-15T02:54:42.861Z,39.39
2023-05-15T02:55:42.868Z,39.37
2023-05-15T02:56:42.873Z,39.39
2023-05-15T02:57:42.875Z,39.39
2023-05-15T02:58:42.878Z,39.37
2023-05-15T02:59:42.895Z,39.38
2023-05-15T03:00:42.893Z,39.39
2023-05-15T03:01:42.967Z,39.38
2023-05-15T03:02:42.934Z,39.37
2023-05-15T03:03:42.900Z,39.36
2023-05-15T03:04:42.987Z,39.39
2023-05-15T03:05:42.937Z,39.39
2023-05-15T03:06:42.961Z,39.38
2023-05-15T03:07:42.955Z,39.39
2023-05-15T03:08:42.965Z,39.38
2023-05-15T03:09:42.962Z,39.37
2023-05-15T03:10:43.300Z,39.36
2023-05-15T03:11:42.990Z,39.39
2023-05-15T03:12:42.990Z,39.39
2023-05-15T03:13:42.997Z,39.37
2023-05-15T03:14:43.010Z,39.39
2023-05-15T03:15:43.023Z,39.38
2023-05-15T03:16:43.082Z,39.36
2023-05-15T03:17:43.164Z,39.39
2023-05-15T03:18:43.098Z,39.38
2023-05-15T03:19:43.077Z,39.38
2023-05-15T03:20:43.083Z,39.38
2023-05-15T03:21:43.102Z,39.38
2023-05-15T03:22:43.117Z,39.37
2023-05-15T03:23:43.132Z,39.38
2023-05-15T03:24:43.161Z,39.39
2023-05-15T03:25:43.179Z,39.39
2023-05-15T03:26:43.198Z,39.38
2023-05-15T03:27:43.190Z,39.36
2023-05-15T03:28:43.217Z,39.38
2023-05-15T03:29:43.225Z,39.39
2023-05-15T03:30:43.231Z,39.39
2023-05-15T03:31:43.338Z,39.38
2023-05-15T03:32:43.252Z,39.38
2023-05-15T03:33:43.315Z,39.37
2023-05-15T03:34:43.249Z,39.36
2023-05-15T03:35:43.244Z,39.37
2023-05-15T03:36:43.253Z,39.38
2023-05-15T03:37:43.252Z,39.37
2023-05-15T03:38:43.255Z,39.40
2023-05-15T03:39:43.270Z,39.36
2023-05-15T03:40:43.261Z,39.38
2023-05-15T03:41:43.273Z,39.37
2023-05-15T03:42:43.290Z,39.39
2023-05-15T03:43:43.297Z,39.37
2023-05-15T03:44:43.306Z,39.38
2023-05-15T03:45:43.323Z,39.37
2023-05-15T03:46:43.395Z,39.38
2023-05-15T03:47:43.426Z,39.36
2023-05-15T03:48:43.343Z,39.39
2023-05-15T03:49:43.344Z,39.38
2023-05-15T03:50:43.355Z,39.38
2023-05-15T03:51:43.380Z,39.38
2023-05-15T03:52:43.380Z,39.38
2023-05-15T03:53:43.384Z,39.39
2023-05-15T03:54:43.406Z,39.40
2023-05-15T03:55:43.404Z,39.40
2023-05-15T03:56:43.413Z,39.38
2023-05-15T03:57:43.406Z,39.38
2023-05-15T03:58:43.427Z,39.40
2023-05-15T03:59:43.424Z,39.38
2023-05-15T04:00:43.435Z,39.37
2023-05-15T04:01:59.461Z,39.38
2023-05-15T04:02:44.552Z,39.41
2023-05-15T04:03:43.491Z,39.37
2023-05-15T04:04:43.482Z,39.41
2023-05-15T04:05:43.529Z,39.37
2023-05-15T04:06:43.454Z,39.38
2023-05-15T04:07:43.441Z,39.35
2023-05-15T04:08:43.445Z,39.38
2023-05-15T04:09:43.458Z,39.40
2023-05-15T04:10:43.470Z,39.36
2023-05-15T04:11:43.454Z,39.40
2023-05-15T04:12:43.459Z,39.37
2023-05-15T04:13:43.456Z,39.38
2023-05-15T04:14:43.466Z,39.38
2023-05-15T04:15:43.460Z,39.39
2023-05-15T04:16:43.586Z,39.40
2023-05-15T04:17:43.501Z,39.39
2023-05-15T04:18:43.548Z,39.40
2023-05-15T04:19:43.524Z,39.39
2023-05-15T04:20:43.506Z,39.40
2023-05-15T04:21:43.487Z,39.39
2023-05-15T04:22:43.503Z,39.39
2023-05-15T04:23:43.487Z,39.38
2023-05-15T04:24:43.505Z,39.38
2023-05-15T04:25:43.564Z,39.39
2023-05-15T04:26:43.682Z,39.39
2023-05-15T04:27:43.771Z,39.37
2023-05-15T04:28:52.484Z,39.40
2023-05-15T04:29:44.757Z,39.38
2023-05-15T04:30:43.764Z,39.39
2023-05-15T04:31:43.832Z,39.40
2023-05-15T04:32:43.813Z,39.39
2023-05-15T04:33:43.767Z,39.39
2023-05-15T04:34:43.771Z,39.39
2023-05-15T04:35:43.782Z,39.38
2023-05-15T04:36:43.781Z,39.36
2023-05-15T04:37:43.792Z,39.37
2023-05-15T04:38:43.860Z,39.39
2023-05-15T04:39:43.920Z,39.38
2023-05-15T04:40:43.977Z,39.41
2023-05-15T04:41:44.040Z,39.40
2023-05-15T04:42:44.108Z,39.37
2023-05-15T04:43:44.159Z,39.36
2023-05-15T04:44:44.225Z,39.37
2023-05-15T04:45:44.364Z,39.36
2023-05-15T04:46:44.362Z,39.35
2023-05-15T04:47:44.448Z,39.37
2023-05-15T04:48:44.485Z,39.34
2023-05-15T04:49:44.547Z,39.36
2023-05-15T04:50:44.611Z,39.34
2023-05-15T04:51:44.674Z,39.37
2023-05-15T04:52:44.736Z,39.35
2023-05-15T04:53:44.787Z,39.37
2023-05-15T04:54:44.850Z,39.37
2023-05-15T04:55:45.013Z,39.36
2023-05-15T04:56:44.967Z,39.37
2023-05-15T04:57:45.023Z,39.36
2023-05-15T04:58:45.088Z,39.33
2023-05-15T04:59:45.155Z,39.34
2023-05-15T05:00:45.203Z,39.35
2023-05-15T05:01:45.305Z,39.34
2023-05-15T05:02:45.411Z,39.31
2023-05-15T05:03:45.414Z,39.34
2023-05-15T05:04:45.443Z,39.31
2023-05-15T05:05:45.504Z,39.32
2023-05-15T05:06:45.572Z,39.34
2023-05-15T05:07:45.635Z,39.35
2023-05-15T05:08:45.711Z,39.36
2023-05-15T05:09:45.762Z,39.35
2023-05-15T05:10:45.818Z,39.33
2023-05-15T05:11:45.876Z,39.33
2023-05-15T05:12:45.924Z,39.35
2023-05-15T05:13:45.992Z,39.36
2023-05-15T05:14:46.054Z,39.33
2023-05-15T05:15:46.146Z,39.35
2023-05-15T05:16:46.157Z,39.33
2023-05-15T05:17:46.273Z,39.34
2023-05-15T05:18:46.309Z,39.35
2023-05-15T05:19:46.333Z,39.37
2023-05-15T05:20:46.387Z,39.35
2023-05-15T05:21:46.440Z,39.48
2023-05-15T05:22:46.501Z,39.59
2023-05-15T05:23:46.546Z,40.03
2023-05-15T05:24:46.553Z,40.24
2023-05-15T05:25:46.539Z,40.83
2023-05-15T05:26:46.564Z,40.82
2023-05-15T05:27:46.545Z,41.37
2023-05-15T05:28:46.545Z,41.93
2023-05-15T05:29:46.556Z,41.67
2023-05-15T05:30:46.599Z,41.77
2023-05-15T05:31:46.777Z,41.75
2023-05-15T05:32:46.611Z,41.75
2023-05-15T05:33:46.593Z,41.77
2023-05-15T05:34:46.542Z,41.62
2023-05-15T05:35:46.536Z,41.43
2023-05-15T05:36:46.600Z,41.45
2023-05-15T05:37:46.598Z,41.55
2023-05-15T05:38:46.670Z,41.61
2023-05-15T05:39:46.718Z,41.67
2023-05-15T05:40:46.726Z,41.68
2023-05-15T05:41:46.754Z,41.67
2023-05-15T05:42:46.743Z,41.68
2023-05-15T05:43:46.763Z,41.71
2023-05-15T05:44:46.794Z,41.73
2023-05-15T05:45:46.808Z,41.70
2023-05-15T05:46:46.854Z,41.78
2023-05-15T05:47:46.861Z,41.77
2023-05-15T05:48:46.851Z,41.79
2023-05-15T05:49:46.861Z,41.79
2023-05-15T05:50:46.864Z,41.78
2023-05-15T05:51:46.873Z,41.79
2023-05-15T05:52:46.890Z,41.81
2023-05-15T05:53:46.909Z,41.80
2023-05-15T05:54:46.911Z,41.81
2023-05-15T05:55:46.894Z,41.77
2023-05-15T05:56:46.905Z,41.78
2023-05-15T05:57:46.898Z,41.78
2023-05-15T05:58:46.907Z,41.75
2023-05-15T05:59:46.902Z,41.78
2023-05-15T06:00:46.907Z,41.76
2023-05-15T06:01:46.967Z,41.78
2023-05-15T06:02:47.094Z,41.76
2023-05-15T06:03:47.003Z,41.74
2023-05-15T06:04:46.901Z,41.79
2023-05-15T06:05:46.909Z,41.73
2023-05-15T06:06:46.903Z,41.74
2023-05-15T06:07:46.904Z,41.74
2023-05-15T06:08:46.904Z,41.73
2023-05-15T06:09:46.917Z,41.71
2023-05-15T06:10:46.902Z,41.72
2023-05-15T06:11:46.916Z,41.70
2023-05-15T06:12:46.926Z,41.73
2023-05-15T06:13:46.942Z,41.72
2023-05-15T06:14:46.908Z,41.70
2023-05-15T06:15:46.907Z,41.67
2023-05-15T06:16:46.934Z,41.69
2023-05-15T06:17:46.950Z,41.66
2023-05-15T06:18:46.920Z,41.65
2023-05-15T06:19:46.913Z,41.65
2023-05-15T06:20:46.915Z,41.65
2023-05-15T06:21:46.934Z,41.84
2023-05-15T06:22:46.911Z,41.77
2023-05-15T06:23:46.908Z,41.87
2023-05-15T06:24:46.901Z,41.87
2023-05-15T06:25:46.900Z,41.92
2023-05-15T06:26:46.897Z,41.91
2023-05-15T06:27:46.887Z,41.59
2023-05-15T06:28:46.891Z,41.68
2023-05-15T06:29:46.899Z,41.76
2023-05-15T06:30:46.908Z,42.02
2023-05-15T06:31:46.909Z,42.25
2023-05-15T06:32:46.952Z,42.10
2023-05-15T06:33:46.921Z,42.13
2023-05-15T06:34:46.930Z,42.08
2023-05-15T06:35:46.952Z,41.89
2023-05-15T06:36:46.960Z,42.03
2023-05-15T06:37:46.977Z,42.00
2023-05-15T06:38:46.969Z,42.10
2023-05-15T06:39:46.995Z,42.09
2023-05-15T06:40:47.029Z,41.74
2023-05-15T06:41:47.071Z,41.71
2023-05-15T06:42:47.121Z,41.92
2023-05-15T06:43:47.173Z,41.96
2023-05-15T06:44:47.198Z,41.72
2023-05-15T06:45:47.263Z,41.52
2023-05-15T06:46:47.888Z,41.58
2023-05-15T06:47:47.366Z,41.75
2023-05-15T06:48:47.350Z,41.93
2023-05-15T06:49:47.364Z,41.83
2023-05-15T06:50:47.434Z,41.93
2023-05-15T06:51:47.452Z,42.05
2023-05-15T06:52:47.502Z,42.35
2023-05-15T06:53:47.546Z,42.40
2023-05-15T06:54:47.577Z,42.40
2023-05-15T06:55:47.625Z,42.33
2023-05-15T06:56:47.653Z,42.24
2023-05-15T06:57:48.164Z,42.17
2023-05-15T06:58:47.677Z,42.25
2023-05-15T06:59:47.815Z,42.25
2023-05-15T07:00:47.709Z,42.32
2023-05-15T07:01:47.762Z,42.39
2023-05-15T07:02:47.761Z,42.41
2023-05-15T07:03:47.748Z,42.43
2023-05-15T07:04:47.826Z,42.49
2023-05-15T07:05:47.817Z,42.49
2023-05-15T07:06:47.885Z,42.47
2023-05-15T07:07:47.879Z,42.49
2023-05-15T07:08:47.917Z,42.47
2023-05-15T07:09:47.940Z,42.31
2023-05-15T07:10:47.966Z,42.28
2023-05-15T07:11:47.982Z,42.14
2023-05-15T07:12:47.994Z,42.26
2023-05-15T07:13:47.990Z,42.08
2023-05-15T07:14:47.994Z,42.22
2023-05-15T07:15:48.275Z,42.34
2023-05-15T07:16:48.745Z,42.39
2023-05-15T07:17:48.245Z,42.30
2023-05-15T07:18:48.271Z,42.36
2023-05-15T07:19:48.231Z,42.39
2023-05-15T07:20:48.285Z,42.47
2023-05-15T07:21:48.311Z,42.39
2023-05-15T07:22:56.204Z,42.41
2023-05-15T07:23:49.390Z,42.36
2023-05-15T07:24:48.374Z,42.34
2023-05-15T07:25:48.418Z,42.31
2023-05-15T07:26:58.009Z,42.27
2023-05-15T07:27:49.361Z,42.30
2023-05-15T07:28:49.248Z,42.28
2023-05-15T07:29:48.355Z,42.27
2023-05-15T07:30:48.346Z,42.25
2023-05-15T07:31:48.687Z,42.24
2023-05-15T07:32:48.378Z,42.26
2023-05-15T07:33:48.328Z,42.27
2023-05-15T07:34:48.324Z,42.25
2023-05-15T07:35:48.373Z,42.26
2023-05-15T07:36:48.425Z,42.24
2023-05-15T07:37:48.528Z,42.26
2023-05-15T07:38:48.558Z,42.24
2023-05-15T07:39:48.666Z,42.27
2023-05-15T07:40:48.694Z,42.23
2023-05-15T07:41:48.754Z,42.20
2023-05-15T07:42:48.820Z,42.17
2023-05-15T07:43:48.891Z,42.11
2023-05-15T07:44:49.743Z,42.01
2023-05-15T07:45:49.099Z,41.87
2023-05-15T07:46:49.082Z,41.78
2023-05-15T07:47:49.288Z,41.69
2023-05-15T07:48:49.168Z,41.58
2023-05-15T07:49:49.221Z,41.52
2023-05-15T07:50:49.299Z,41.45
2023-05-15T07:51:49.415Z,41.44
2023-05-15T07:52:50.181Z,41.43
2023-05-15T07:53:49.430Z,41.45
2023-05-15T07:54:49.495Z,41.47
2023-05-15T07:55:49.548Z,41.46
2023-05-15T07:56:49.595Z,41.50
2023-05-15T07:57:53.579Z,41.54
2023-05-15T07:58:49.676Z,41.51
2023-05-15T07:59:49.640Z,41.54
2023-05-15T08:00:49.636Z,41.55
2023-05-15T08:01:49.618Z,41.58
2023-05-15T08:02:49.743Z,41.54
2023-05-15T08:03:50.258Z,41.56
2023-05-15T08:04:49.609Z,41.56
2023-05-15T08:05:49.622Z,41.58
2023-05-15T08:06:49.617Z,41.55
2023-05-15T08:07:49.618Z,41.56
2023-05-15T08:08:49.610Z,41.57
2023-05-15T08:09:49.619Z,41.60
2023-05-15T08:10:49.607Z,41.56
2023-05-15T08:11:50.221Z,41.61
2023-05-15T08:12:49.594Z,41.67
2023-05-15T08:13:49.621Z,41.70
2023-05-15T08:14:49.586Z,41.69
2023-05-15T08:15:50.279Z,41.73
2023-05-15T08:16:50.184Z,41.76
2023-05-15T08:17:49.616Z,41.74
2023-05-15T08:18:49.626Z,41.82
2023-05-15T08:19:49.768Z,41.81
2023-05-15T08:20:49.649Z,41.83
2023-05-15T08:21:49.660Z,41.87
2023-05-15T08:22:49.725Z,41.84
2023-05-15T08:23:49.786Z,41.87
2023-05-15T08:24:49.845Z,42.04
2023-05-15T08:25:50.907Z,41.99
2023-05-15T08:26:49.835Z,41.99
2023-05-15T08:27:49.840Z,41.94
2023-05-15T08:28:49.824Z,41.96
2023-05-15T08:29:49.824Z,41.95
2023-05-15T08:30:49.915Z,41.90
2023-05-15T08:31:49.885Z,41.90
2023-05-15T08:32:49.880Z,41.94
2023-05-15T08:33:49.845Z,41.91
2023-05-15T08:34:50.764Z,41.97
2023-05-15T08:35:49.990Z,41.98
2023-05-15T08:36:50.027Z,41.98
2023-05-15T08:37:50.088Z,41.97
2023-05-15T08:38:50.688Z,41.98
2023-05-15T08:39:50.214Z,42.02
2023-05-15T08:40:50.298Z,42.02
2023-05-15T08:41:50.340Z,42.00
2023-05-15T08:42:50.431Z,42.02
2023-05-15T08:43:50.472Z,42.05
2023-05-15T08:44:50.534Z,42.04
2023-05-15T08:45:50.601Z,42.03
2023-05-15T08:46:51.343Z,42.05
2023-05-15T08:47:50.833Z,42.05
2023-05-15T08:48:50.828Z,42.04
2023-05-15T08:49:50.866Z,42.08
2023-05-15T08:50:50.921Z,42.03
2023-05-15T08:51:50.988Z,42.01
2023-05-15T08:52:51.056Z,42.00
2023-05-15T08:53:51.121Z,41.99
2023-05-15T08:54:51.191Z,42.00
2023-05-15T08:55:51.268Z,41.97
2023-05-15T08:56:51.321Z,42.00
2023-05-15T08:57:51.383Z,41.98
2023-05-15T08:58:51.502Z,41.98
2023-05-15T08:59:51.525Z,41.98
2023-05-15T09:00:51.574Z,41.95
2023-05-15T09:01:51.698Z,41.91
2023-05-15T09:02:51.731Z,41.93
2023-05-15T09:03:51.890Z,41.92
2023-05-15T09:04:51.839Z,41.92
2023-05-15T09:05:51.905Z,41.90
2023-05-15T09:06:51.978Z,41.91
2023-05-15T09:07:52.049Z,41.91
2023-05-15T09:08:52.109Z,41.89
2023-05-15T09:09:52.173Z,41.90
2023-05-15T09:10:52.779Z,41.93
2023-05-15T09:11:52.341Z,41.90
2023-05-15T09:12:52.377Z,41.89
2023-05-15T09:13:52.452Z,41.90
2023-05-15T09:14:52.516Z,41.86
2023-05-15T09:15:52.597Z,41.83
2023-05-15T09:16:52.666Z,41.84
2023-05-15T09:17:52.803Z,41.85
2023-05-15T09:18:52.871Z,41.85
2023-05-15T09:19:52.824Z,41.83
2023-05-15T09:20:54.732Z,41.81
2023-05-15T09:21:52.877Z,42.05
2023-05-15T09:22:53.829Z,42.09
2023-05-15T09:23:52.893Z,42.31
2023-05-15T09:24:52.918Z,42.39
2023-05-15T09:25:52.957Z,42.49
2023-05-15T09:26:54.209Z,42.55
2023-05-15T09:27:52.874Z,42.59
2023-05-15T09:28:52.885Z,42.70
2023-05-15T09:29:52.870Z,42.73
2023-05-15T09:30:52.883Z,42.84
2023-05-15T09:31:52.904Z,42.95
2023-05-15T09:32:52.945Z,43.05
2023-05-15T09:33:52.861Z,43.12
2023-05-15T09:34:52.842Z,43.27
2023-05-15T09:35:52.862Z,43.39
2023-05-15T09:36:52.831Z,43.48
2023-05-15T09:37:52.830Z,43.58
2023-05-15T09:38:52.861Z,43.66
2023-05-15T09:39:52.806Z,43.70
2023-05-15T09:40:52.797Z,43.81
2023-05-15T09:41:53.718Z,43.94
2023-05-15T09:42:52.782Z,44.08
2023-05-15T09:43:52.759Z,44.17
2023-05-15T09:44:52.752Z,44.25
2023-05-15T09:45:52.872Z,44.36
2023-05-15T09:46:52.783Z,44.43
2023-05-15T09:47:52.736Z,44.62
2023-05-15T09:48:52.741Z,44.69
2023-05-15T09:49:52.721Z,44.71
2023-05-15T09:50:52.777Z,44.87
2023-05-15T09:51:52.731Z,45.03
2023-05-15T09:52:52.747Z,45.09
2023-05-15T09:53:52.741Z,45.22
2023-05-15T09:54:52.738Z,45.34
2023-05-15T09:55:52.742Z,45.44
2023-05-15T09:56:52.738Z,45.50
2023-05-15T09:57:52.739Z,45.64
2023-05-15T09:58:52.731Z,45.79
2023-05-15T09:59:52.727Z,45.86
2023-05-15T10:00:52.757Z,45.92
2023-05-15T10:01:52.809Z,46.04
2023-05-15T10:02:53.361Z,46.11
2023-05-15T10:03:52.736Z,46.31
2023-05-15T10:04:52.773Z,46.40
2023-05-15T10:05:52.756Z,46.50
2023-05-15T10:06:52.740Z,46.64
2023-05-15T10:07:52.764Z,46.70
2023-05-15T10:08:52.780Z,46.78
2023-05-15T10:09:52.788Z,46.91
2023-05-15T10:10:52.800Z,46.98
2023-05-15T10:11:52.827Z,47.27
2023-05-15T10:12:52.850Z,47.38
2023-05-15T10:13:52.877Z,47.43
2023-05-15T10:14:52.906Z,47.64
2023-05-15T10:15:52.956Z,47.57
2023-05-15T10:16:52.950Z,47.62
2023-05-15T10:17:52.987Z,47.73
2023-05-15T10:18:53.029Z,47.75
2023-05-15T10:19:58.057Z,47.81
2023-05-15T10:20:54.004Z,47.85
2023-05-15T10:21:53.008Z,47.87
2023-05-15T10:22:52.990Z,47.91
2023-05-15T10:23:52.965Z,47.89
2023-05-15T10:24:52.964Z,47.92
2023-05-15T10:25:53.810Z,47.88
2023-05-15T10:26:52.922Z,47.89
2023-05-15T10:27:52.916Z,47.92
2023-05-15T10:28:52.900Z,47.95
2023-05-15T10:29:52.895Z,47.96
2023-05-15T10:30:52.866Z,47.90
2023-05-15T10:31:53.839Z,47.96
2023-05-15T10:32:52.910Z,47.97
2023-05-15T10:33:52.817Z,47.91
2023-05-15T10:34:52.809Z,47.92
2023-05-15T10:35:52.802Z,47.84
2023-05-15T10:36:52.776Z,47.78
2023-05-15T10:37:52.788Z,47.74
2023-05-15T10:38:52.814Z,47.68
2023-05-15T10:39:52.854Z,47.64
2023-05-15T10:40:59.720Z,47.67
2023-05-15T10:41:53.911Z,47.70
2023-05-15T10:42:52.817Z,47.69
2023-05-15T10:43:52.795Z,47.81
2023-05-15T10:44:52.761Z,47.85
2023-05-15T10:45:52.750Z,47.83
2023-05-15T10:46:52.775Z,47.83
2023-05-15T10:47:52.763Z,47.81
2023-05-15T10:48:52.693Z,47.79
2023-05-15T10:49:52.661Z,47.76
2023-05-15T10:50:52.670Z,47.77
2023-05-15T10:51:52.658Z,47.87
2023-05-15T10:52:52.642Z,47.86
2023-05-15T10:53:52.606Z,47.83
2023-05-15T10:54:52.584Z,47.85
2023-05-15T10:55:52.728Z,47.88
2023-05-15T10:56:52.602Z,47.73
2023-05-15T10:57:52.560Z,47.86
2023-05-15T10:58:52.547Z,47.84
2023-05-15T10:59:52.536Z,47.91
2023-05-15T11:00:52.547Z,47.94
2023-05-15T11:01:52.535Z,47.93
2023-05-15T11:02:52.621Z,47.93
2023-05-15T11:03:54.675Z,47.93
2023-05-15T11:04:52.566Z,47.94
2023-05-15T11:05:52.552Z,47.48
2023-05-15T11:06:52.550Z,47.33
2023-05-15T11:07:52.512Z,47.15
2023-05-15T11:08:52.503Z,47.26
2023-05-15T11:09:52.489Z,47.32
2023-05-15T11:10:52.468Z,47.08
2023-05-15T11:11:52.662Z,47.16
2023-05-15T11:12:52.449Z,47.11
2023-05-15T11:13:52.436Z,47.01
2023-05-15T11:14:52.413Z,47.04
2023-05-15T11:15:52.404Z,47.04
2023-05-15T11:16:52.469Z,46.92
2023-05-15T11:17:52.427Z,46.91
2023-05-15T11:18:52.428Z,46.86
2023-05-15T11:19:52.361Z,46.84
2023-05-15T11:20:52.349Z,46.76
2023-05-15T11:21:52.330Z,46.62
2023-05-15T11:22:52.336Z,46.58
2023-05-15T11:23:52.333Z,46.44
2023-05-15T11:24:52.366Z,46.37
2023-05-15T11:25:52.318Z,46.44
2023-05-15T11:26:52.318Z,46.24
2023-05-15T11:27:52.310Z,45.79
2023-05-15T11:28:52.341Z,45.63
2023-05-15T11:29:52.288Z,45.14
2023-05-15T11:30:52.338Z,45.09
2023-05-15T11:31:52.297Z,44.29
2023-05-15T11:32:52.312Z,44.64
2023-05-15T11:33:52.588Z,45.68
2023-05-15T11:34:52.239Z,45.50
2023-05-15T11:35:52.222Z,45.65
2023-05-15T11:36:52.225Z,45.83
2023-05-15T11:37:52.234Z,46.27
2023-05-15T11:38:52.268Z,46.39
2023-05-15T11:39:52.198Z,46.60
2023-05-15T11:40:52.201Z,46.65
2023-05-15T11:41:52.204Z,46.61
2023-05-15T11:42:52.198Z,46.50
2023-05-15T11:43:52.202Z,46.60
2023-05-15T11:44:52.189Z,46.50
2023-05-15T11:45:52.175Z,46.46
2023-05-15T11:46:52.244Z,46.37
2023-05-15T11:47:52.243Z,46.35
2023-05-15T11:48:52.251Z,46.30
2023-05-15T11:49:52.182Z,46.31
2023-05-15T11:50:52.144Z,46.27
2023-05-15T11:51:52.136Z,46.24
2023-05-15T11:52:52.122Z,46.23
2023-05-15T11:53:52.125Z,46.22
2023-05-15T11:54:52.093Z,46.19
2023-05-15T11:55:52.090Z,46.17
2023-05-15T11:56:52.082Z,46.15
2023-05-15T11:57:52.064Z,46.15
2023-05-15T11:58:52.161Z,46.13
2023-05-15T11:59:52.055Z,46.12
2023-05-15T12:00:52.069Z,46.08
2023-05-15T12:01:52.060Z,46.09
2023-05-15T12:02:52.170Z,46.06
2023-05-15T12:03:52.222Z,46.02
2023-05-15T12:04:52.085Z,46.00
2023-05-15T12:05:58.930Z,45.97
2023-05-15T12:06:53.089Z,45.99
2023-05-15T12:07:52.070Z,45.94
2023-05-15T12:08:52.070Z,45.94
2023-05-15T12:09:52.065Z,45.90
2023-05-15T12:10:52.048Z,45.90
2023-05-15T12:11:52.058Z,45.90
2023-05-15T12:12:52.139Z,45.87
2023-05-15T12:13:52.049Z,45.86
2023-05-15T12:14:52.042Z,45.85
2023-05-15T12:15:52.048Z,45.84
2023-05-15T12:16:52.146Z,45.81
2023-05-15T12:17:52.081Z,45.81
2023-05-15T12:18:52.150Z,45.79
2023-05-15T12:19:51.998Z,45.77
2023-05-15T12:20:52.010Z,45.78
2023-05-15T12:21:52.037Z,45.77
2023-05-15T12:22:52.067Z,45.75
2023-05-15T12:24:03.464Z,45.72
2023-05-15T12:24:53.145Z,45.69
2023-05-15T12:25:52.119Z,45.74
2023-05-15T12:26:52.081Z,45.66
2023-05-15T12:27:52.070Z,45.65
2023-05-15T12:28:52.061Z,45.62
2023-05-15T12:29:52.050Z,45.64
2023-05-15T12:30:52.036Z,45.65
2023-05-15T12:31:52.045Z,45.62
2023-05-15T12:32:52.102Z,45.62
2023-05-15T12:33:52.021Z,45.63
2023-05-15T12:34:52.023Z,45.63
2023-05-15T12:35:52.036Z,45.60
2023-05-15T12:36:52.004Z,45.62
2023-05-15T12:37:52.003Z,45.60
2023-05-15T12:38:52.035Z,45.57
2023-05-15T12:39:52.085Z,45.58
2023-05-15T12:40:52.107Z,45.54
2023-05-15T12:41:52.131Z,45.50
2023-05-15T12:42:52.206Z,45.50
2023-05-15T12:43:52.207Z,45.47
2023-05-15T12:44:52.239Z,45.44
2023-05-15T12:45:52.285Z,45.47
2023-05-15T12:46:52.293Z,45.44
2023-05-15T12:47:52.374Z,45.40
2023-05-15T12:48:52.372Z,45.40
2023-05-15T12:49:52.393Z,45.41
2023-05-15T12:50:52.427Z,45.35
2023-05-15T12:51:52.461Z,45.37
2023-05-15T12:52:52.503Z,45.36
2023-05-15T12:53:52.525Z,45.34